sensor_id;sensor_type;location;lat;lon;timestamp;P1;durP1;ratioP1;P2;durP2;ratioP2
44456;SDS011;30159;49.316;8.558;2024-01-27T00:02:09;4.07;;;2.30;;
44456;SDS011;30159;49.316;8.558;2024-01-27T00:04:36;2.00;;;1.90;;
44456;SDS011;30159;49.316;8.558;2024-01-27T00:07:03;3.53;;;2.40;;
44456;SDS011;30159;49.316;8.558;2024-01-27T00:09:31;2.07;;;1.87;;
44456;SDS011;30159;49.316;8.558;2024-01-27T00:11:57;3.17;;;1.90;;
44456;SDS011;30159;49.316;8.558;2024-01-27T00:14:24;2.40;;;2.20;;
44456;SDS011;30159;49.316;8.558;2024-01-27T00:16:51;5.40;;;2.60;;
44456;SDS011;30159;49.316;8.558;2024-01-27T00:19:17;4.77;;;2.57;;
44456;SDS011;30159;49.316;8.558;2024-01-27T00:21:44;6.67;;;2.00;;
44456;SDS011;30159;49.316;8.558;2024-01-27T00:24:12;2.73;;;1.93;;
44456;SDS011;30159;49.316;8.558;2024-01-27T00:26:41;4.23;;;2.40;;
44456;SDS011;30159;49.316;8.558;2024-01-27T00:29:09;2.90;;;2.60;;
44456;SDS011;30159;49.316;8.558;2024-01-27T00:31:36;2.93;;;2.37;;
44456;SDS011;30159;49.316;8.558;2024-01-27T00:34:02;2.67;;;2.10;;
44456;SDS011;30159;49.316;8.558;2024-01-27T00:36:29;3.30;;;1.90;;
44456;SDS011;30159;49.316;8.558;2024-01-27T00:38:56;2.30;;;1.80;;
44456;SDS011;30159;49.316;8.558;2024-01-27T00:41:22;3.67;;;2.30;;
44456;SDS011;30159;49.316;8.558;2024-01-27T00:43:50;1.60;;;1.50;;
44456;SDS011;30159;49.316;8.558;2024-01-27T00:46:17;3.70;;;1.43;;
44456;SDS011;30159;49.316;8.558;2024-01-27T00:48:44;1.50;;;1.40;;
44456;SDS011;30159;49.316;8.558;2024-01-27T00:51:10;2.00;;;1.50;;
44456;SDS011;30159;49.316;8.558;2024-01-27T00:53:37;2.20;;;1.40;;
44456;SDS011;30159;49.316;8.558;2024-01-27T00:56:04;1.70;;;1.50;;
44456;SDS011;30159;49.316;8.558;2024-01-27T00:58:31;2.60;;;1.70;;
44456;SDS011;30159;49.316;8.558;2024-01-27T01:01:00;3.50;;;2.10;;
44456;SDS011;30159;49.316;8.558;2024-01-27T01:03:27;1.77;;;1.67;;
44456;SDS011;30159;49.316;8.558;2024-01-27T01:05:53;2.73;;;1.63;;
44456;SDS011;30159;49.316;8.558;2024-01-27T01:08:20;2.77;;;2.37;;
44456;SDS011;30159;49.316;8.558;2024-01-27T01:10:46;4.47;;;1.70;;
44456;SDS011;30159;49.316;8.558;2024-01-27T01:13:13;2.13;;;1.70;;
44456;SDS011;30159;49.316;8.558;2024-01-27T01:15:40;2.87;;;2.00;;
44456;SDS011;30159;49.316;8.558;2024-01-27T01:18:08;2.50;;;1.93;;
44456;SDS011;30159;49.316;8.558;2024-01-27T01:20:35;1.90;;;1.30;;
44456;SDS011;30159;49.316;8.558;2024-01-27T01:23:01;1.20;;;1.10;;
44456;SDS011;30159;49.316;8.558;2024-01-27T01:25:28;3.97;;;2.10;;
44456;SDS011;30159;49.316;8.558;2024-01-27T01:27:56;3.30;;;1.50;;
44456;SDS011;30159;49.316;8.558;2024-01-27T01:30:22;2.20;;;1.63;;
44456;SDS011;30159;49.316;8.558;2024-01-27T01:32:49;1.83;;;1.23;;
44456;SDS011;30159;49.316;8.558;2024-01-27T01:35:18;1.70;;;1.60;;
44456;SDS011;30159;49.316;8.558;2024-01-27T01:37:45;4.57;;;1.60;;
44456;SDS011;30159;49.316;8.558;2024-01-27T01:40:13;1.60;;;1.50;;
44456;SDS011;30159;49.316;8.558;2024-01-27T01:42:40;1.50;;;1.40;;
44456;SDS011;30159;49.316;8.558;2024-01-27T01:45:08;1.70;;;1.60;;
44456;SDS011;30159;49.316;8.558;2024-01-27T01:47:37;3.10;;;1.07;;
44456;SDS011;30159;49.316;8.558;2024-01-27T01:50:04;1.40;;;1.20;;
44456;SDS011;30159;49.316;8.558;2024-01-27T01:52:33;2.70;;;1.00;;
44456;SDS011;30159;49.316;8.558;2024-01-27T01:55:00;1.97;;;1.10;;
44456;SDS011;30159;49.316;8.558;2024-01-27T01:57:27;7.10;;;1.27;;
44456;SDS011;30159;49.316;8.558;2024-01-27T01:59:54;1.43;;;0.90;;
44456;SDS011;30159;49.316;8.558;2024-01-27T02:02:21;1.60;;;1.50;;
44456;SDS011;30159;49.316;8.558;2024-01-27T02:04:47;1.50;;;1.03;;
44456;SDS011;30159;49.316;8.558;2024-01-27T02:07:14;1.33;;;1.10;;
44456;SDS011;30159;49.316;8.558;2024-01-27T02:09:42;1.10;;;0.90;;
44456;SDS011;30159;49.316;8.558;2024-01-27T02:12:10;1.27;;;1.00;;
44456;SDS011;30159;49.316;8.558;2024-01-27T02:14:37;1.57;;;1.13;;
44456;SDS011;30159;49.316;8.558;2024-01-27T02:17:03;1.30;;;1.17;;
44456;SDS011;30159;49.316;8.558;2024-01-27T02:19:31;2.13;;;1.30;;
44456;SDS011;30159;49.316;8.558;2024-01-27T02:21:57;1.20;;;1.10;;
44456;SDS011;30159;49.316;8.558;2024-01-27T02:24:25;2.70;;;1.30;;
44456;SDS011;30159;49.316;8.558;2024-01-27T02:26:53;1.77;;;1.23;;
44456;SDS011;30159;49.316;8.558;2024-01-27T02:29:20;1.10;;;1.00;;
44456;SDS011;30159;49.316;8.558;2024-01-27T02:31:47;1.50;;;1.10;;
44456;SDS011;30159;49.316;8.558;2024-01-27T02:34:14;1.90;;;1.07;;
44456;SDS011;30159;49.316;8.558;2024-01-27T02:36:41;2.63;;;1.90;;
44456;SDS011;30159;49.316;8.558;2024-01-27T02:39:09;3.37;;;2.07;;
44456;SDS011;30159;49.316;8.558;2024-01-27T02:41:37;4.40;;;1.33;;
44456;SDS011;30159;49.316;8.558;2024-01-27T02:44:04;2.83;;;1.27;;
44456;SDS011;30159;49.316;8.558;2024-01-27T02:46:31;2.60;;;2.03;;
44456;SDS011;30159;49.316;8.558;2024-01-27T02:48:58;7.03;;;1.93;;
44456;SDS011;30159;49.316;8.558;2024-01-27T02:51:24;2.53;;;1.40;;
44456;SDS011;30159;49.316;8.558;2024-01-27T02:53:51;1.63;;;1.53;;
44456;SDS011;30159;49.316;8.558;2024-01-27T02:56:18;3.87;;;1.80;;
44456;SDS011;30159;49.316;8.558;2024-01-27T02:58:46;3.40;;;3.07;;
44456;SDS011;30159;49.316;8.558;2024-01-27T03:01:12;3.50;;;1.50;;
44456;SDS011;30159;49.316;8.558;2024-01-27T03:03:39;1.50;;;1.40;;
44456;SDS011;30159;49.316;8.558;2024-01-27T03:06:06;2.90;;;1.77;;
44456;SDS011;30159;49.316;8.558;2024-01-27T03:08:32;1.63;;;1.50;;
44456;SDS011;30159;49.316;8.558;2024-01-27T03:10:59;5.03;;;1.60;;
44456;SDS011;30159;49.316;8.558;2024-01-27T03:13:26;5.83;;;2.33;;
44456;SDS011;30159;49.316;8.558;2024-01-27T03:15:54;1.53;;;1.43;;
44456;SDS011;30159;49.316;8.558;2024-01-27T03:18:21;4.33;;;1.80;;
44456;SDS011;30159;49.316;8.558;2024-01-27T03:20:49;2.10;;;1.57;;
44456;SDS011;30159;49.316;8.558;2024-01-27T03:23:16;9.80;;;2.40;;
44456;SDS011;30159;49.316;8.558;2024-01-27T03:25:42;4.00;;;2.10;;
44456;SDS011;30159;49.316;8.558;2024-01-27T03:28:09;2.93;;;1.90;;
44456;SDS011;30159;49.316;8.558;2024-01-27T03:30:36;2.23;;;1.77;;
44456;SDS011;30159;49.316;8.558;2024-01-27T03:33:04;3.13;;;1.97;;
44456;SDS011;30159;49.316;8.558;2024-01-27T03:35:31;5.43;;;2.30;;
44456;SDS011;30159;49.316;8.558;2024-01-27T03:37:58;1.60;;;1.50;;
44456;SDS011;30159;49.316;8.558;2024-01-27T03:40:24;2.53;;;1.80;;
44456;SDS011;30159;49.316;8.558;2024-01-27T03:42:51;2.23;;;2.00;;
44456;SDS011;30159;49.316;8.558;2024-01-27T03:45:18;2.00;;;1.80;;
44456;SDS011;30159;49.316;8.558;2024-01-27T03:47:45;2.30;;;1.87;;
44456;SDS011;30159;49.316;8.558;2024-01-27T03:50:13;1.50;;;1.30;;
44456;SDS011;30159;49.316;8.558;2024-01-27T03:52:40;8.37;;;1.43;;
44456;SDS011;30159;49.316;8.558;2024-01-27T03:55:07;2.87;;;2.67;;
44456;SDS011;30159;49.316;8.558;2024-01-27T03:57:35;3.13;;;2.00;;
44456;SDS011;30159;49.316;8.558;2024-01-27T04:00:01;1.73;;;1.63;;
44456;SDS011;30159;49.316;8.558;2024-01-27T04:02:31;3.20;;;1.70;;
44456;SDS011;30159;49.316;8.558;2024-01-27T04:04:58;3.37;;;1.80;;
44456;SDS011;30159;49.316;8.558;2024-01-27T04:07:25;2.50;;;2.00;;
44456;SDS011;30159;49.316;8.558;2024-01-27T04:09:52;3.73;;;2.13;;
44456;SDS011;30159;49.316;8.558;2024-01-27T04:12:19;2.30;;;1.97;;
44456;SDS011;30159;49.316;8.558;2024-01-27T04:14:45;1.77;;;1.67;;
44456;SDS011;30159;49.316;8.558;2024-01-27T04:17:12;3.33;;;1.70;;
44456;SDS011;30159;49.316;8.558;2024-01-27T04:19:39;5.57;;;2.03;;
44456;SDS011;30159;49.316;8.558;2024-01-27T04:22:05;1.40;;;1.13;;
44456;SDS011;30159;49.316;8.558;2024-01-27T04:24:34;2.03;;;1.57;;
44456;SDS011;30159;49.316;8.558;2024-01-27T04:27:00;2.10;;;1.73;;
44456;SDS011;30159;49.316;8.558;2024-01-27T04:29:27;2.00;;;1.90;;
44456;SDS011;30159;49.316;8.558;2024-01-27T04:31:54;2.83;;;1.60;;
44456;SDS011;30159;49.316;8.558;2024-01-27T04:34:20;2.70;;;2.00;;
44456;SDS011;30159;49.316;8.558;2024-01-27T04:36:47;2.07;;;1.93;;
44456;SDS011;30159;49.316;8.558;2024-01-27T04:39:14;2.10;;;1.30;;
44456;SDS011;30159;49.316;8.558;2024-01-27T04:41:42;1.57;;;1.47;;
44456;SDS011;30159;49.316;8.558;2024-01-27T04:44:09;2.80;;;1.70;;
44456;SDS011;30159;49.316;8.558;2024-01-27T04:46:36;2.47;;;1.90;;
44456;SDS011;30159;49.316;8.558;2024-01-27T04:49:03;2.30;;;2.10;;
44456;SDS011;30159;49.316;8.558;2024-01-27T04:51:30;1.80;;;1.60;;
44456;SDS011;30159;49.316;8.558;2024-01-27T04:53:56;2.47;;;2.10;;
44456;SDS011;30159;49.316;8.558;2024-01-27T04:56:23;2.33;;;1.70;;
44456;SDS011;30159;49.316;8.558;2024-01-27T04:58:51;1.80;;;1.43;;
44456;SDS011;30159;49.316;8.558;2024-01-27T05:01:17;2.90;;;1.90;;
44456;SDS011;30159;49.316;8.558;2024-01-27T05:03:44;2.97;;;1.53;;
44456;SDS011;30159;49.316;8.558;2024-01-27T05:06:11;2.30;;;1.40;;
44456;SDS011;30159;49.316;8.558;2024-01-27T05:08:38;2.17;;;1.97;;
44456;SDS011;30159;49.316;8.558;2024-01-27T05:11:05;2.33;;;1.63;;
44456;SDS011;30159;49.316;8.558;2024-01-27T05:13:32;1.87;;;1.60;;
44456;SDS011;30159;49.316;8.558;2024-01-27T05:16:00;6.40;;;1.90;;
44456;SDS011;30159;49.316;8.558;2024-01-27T05:18:27;4.43;;;2.50;;
44456;SDS011;30159;49.316;8.558;2024-01-27T05:20:53;2.50;;;1.40;;
44456;SDS011;30159;49.316;8.558;2024-01-27T05:23:20;3.40;;;2.03;;
44456;SDS011;30159;49.316;8.558;2024-01-27T05:25:47;2.20;;;1.90;;
44456;SDS011;30159;49.316;8.558;2024-01-27T05:28:13;1.43;;;1.30;;
44456;SDS011;30159;49.316;8.558;2024-01-27T05:30:40;3.73;;;2.23;;
44456;SDS011;30159;49.316;8.558;2024-01-27T05:33:09;3.33;;;2.03;;
44456;SDS011;30159;49.316;8.558;2024-01-27T05:35:35;2.80;;;1.97;;
44456;SDS011;30159;49.316;8.558;2024-01-27T05:38:02;3.23;;;1.80;;
44456;SDS011;30159;49.316;8.558;2024-01-27T05:40:29;6.37;;;1.77;;
44456;SDS011;30159;49.316;8.558;2024-01-27T05:42:56;5.03;;;2.53;;
44456;SDS011;30159;49.316;8.558;2024-01-27T05:45:22;8.77;;;2.13;;
44456;SDS011;30159;49.316;8.558;2024-01-27T05:47:49;2.07;;;1.30;;
44456;SDS011;30159;49.316;8.558;2024-01-27T05:50:17;5.50;;;2.50;;
44456;SDS011;30159;49.316;8.558;2024-01-27T05:52:44;1.57;;;1.47;;
44456;SDS011;30159;49.316;8.558;2024-01-27T05:55:11;3.13;;;1.70;;
44456;SDS011;30159;49.316;8.558;2024-01-27T05:57:38;2.57;;;1.90;;
44456;SDS011;30159;49.316;8.558;2024-01-27T06:00:05;9.03;;;1.97;;
44456;SDS011;30159;49.316;8.558;2024-01-27T06:02:34;1.90;;;1.50;;
44456;SDS011;30159;49.316;8.558;2024-01-27T06:05:01;2.53;;;1.60;;
44456;SDS011;30159;49.316;8.558;2024-01-27T06:07:29;1.83;;;1.60;;
44456;SDS011;30159;49.316;8.558;2024-01-27T06:09:55;2.13;;;1.83;;
44456;SDS011;30159;49.316;8.558;2024-01-27T06:12:22;2.40;;;1.40;;
44456;SDS011;30159;49.316;8.558;2024-01-27T06:14:49;3.97;;;1.60;;
44456;SDS011;30159;49.316;8.558;2024-01-27T06:17:15;2.57;;;1.77;;
44456;SDS011;30159;49.316;8.558;2024-01-27T06:19:42;3.50;;;2.30;;
44456;SDS011;30159;49.316;8.558;2024-01-27T06:22:09;3.63;;;1.43;;
44456;SDS011;30159;49.316;8.558;2024-01-27T06:24:43;1.90;;;1.30;;
44456;SDS011;30159;49.316;8.558;2024-01-27T06:27:10;2.47;;;1.80;;
44456;SDS011;30159;49.316;8.558;2024-01-27T06:29:37;3.57;;;1.40;;
44456;SDS011;30159;49.316;8.558;2024-01-27T06:32:03;3.30;;;1.73;;
44456;SDS011;30159;49.316;8.558;2024-01-27T06:34:31;2.93;;;1.50;;
44456;SDS011;30159;49.316;8.558;2024-01-27T06:36:58;4.23;;;1.83;;
44456;SDS011;30159;49.316;8.558;2024-01-27T06:39:25;1.70;;;1.60;;
44456;SDS011;30159;49.316;8.558;2024-01-27T06:41:53;2.27;;;1.60;;
44456;SDS011;30159;49.316;8.558;2024-01-27T06:44:19;3.37;;;2.23;;
44456;SDS011;30159;49.316;8.558;2024-01-27T06:46:46;1.47;;;1.20;;
44456;SDS011;30159;49.316;8.558;2024-01-27T06:49:15;1.87;;;1.77;;
44456;SDS011;30159;49.316;8.558;2024-01-27T06:51:41;1.30;;;1.20;;
44456;SDS011;30159;49.316;8.558;2024-01-27T06:54:09;2.67;;;1.90;;
44456;SDS011;30159;49.316;8.558;2024-01-27T06:56:36;5.50;;;1.73;;
44456;SDS011;30159;49.316;8.558;2024-01-27T06:59:04;2.53;;;2.33;;
44456;SDS011;30159;49.316;8.558;2024-01-27T07:01:31;2.00;;;1.60;;
44456;SDS011;30159;49.316;8.558;2024-01-27T07:03:58;1.67;;;1.57;;
44456;SDS011;30159;49.316;8.558;2024-01-27T07:06:24;1.73;;;1.43;;
44456;SDS011;30159;49.316;8.558;2024-01-27T07:08:51;6.43;;;2.17;;
44456;SDS011;30159;49.316;8.558;2024-01-27T07:11:18;7.27;;;1.80;;
44456;SDS011;30159;49.316;8.558;2024-01-27T07:13:44;2.40;;;1.50;;
44456;SDS011;30159;49.316;8.558;2024-01-27T07:16:13;4.23;;;1.80;;
44456;SDS011;30159;49.316;8.558;2024-01-27T07:18:39;3.47;;;1.80;;
44456;SDS011;30159;49.316;8.558;2024-01-27T07:21:06;3.77;;;2.20;;
44456;SDS011;30159;49.316;8.558;2024-01-27T07:23:32;6.03;;;1.97;;
44456;SDS011;30159;49.316;8.558;2024-01-27T07:26:00;5.70;;;2.80;;
44456;SDS011;30159;49.316;8.558;2024-01-27T07:28:28;3.10;;;2.40;;
44456;SDS011;30159;49.316;8.558;2024-01-27T07:30:55;2.60;;;2.20;;
44456;SDS011;30159;49.316;8.558;2024-01-27T07:33:23;3.90;;;1.53;;
44456;SDS011;30159;49.316;8.558;2024-01-27T07:35:50;3.47;;;1.97;;
44456;SDS011;30159;49.316;8.558;2024-01-27T07:38:17;3.70;;;1.80;;
44456;SDS011;30159;49.316;8.558;2024-01-27T07:40:43;5.40;;;1.97;;
44456;SDS011;30159;49.316;8.558;2024-01-27T07:43:10;2.50;;;1.30;;
44456;SDS011;30159;49.316;8.558;2024-01-27T07:45:37;2.70;;;1.60;;
44456;SDS011;30159;49.316;8.558;2024-01-27T07:48:04;2.40;;;1.80;;
44456;SDS011;30159;49.316;8.558;2024-01-27T07:50:32;2.23;;;2.03;;
44456;SDS011;30159;49.316;8.558;2024-01-27T07:52:59;2.17;;;1.40;;
44456;SDS011;30159;49.316;8.558;2024-01-27T07:55:27;4.97;;;2.50;;
44456;SDS011;30159;49.316;8.558;2024-01-27T07:57:53;10.50;;;1.83;;
44456;SDS011;30159;49.316;8.558;2024-01-27T08:00:20;3.30;;;2.80;;
44456;SDS011;30159;49.316;8.558;2024-01-27T08:02:47;2.47;;;2.00;;
44456;SDS011;30159;49.316;8.558;2024-01-27T08:05:13;3.33;;;2.10;;
44456;SDS011;30159;49.316;8.558;2024-01-27T08:07:42;2.53;;;2.23;;
44456;SDS011;30159;49.316;8.558;2024-01-27T08:10:09;3.67;;;2.90;;
44456;SDS011;30159;49.316;8.558;2024-01-27T08:12:36;3.27;;;2.00;;
44456;SDS011;30159;49.316;8.558;2024-01-27T08:15:03;4.63;;;2.63;;
44456;SDS011;30159;49.316;8.558;2024-01-27T08:17:31;5.10;;;3.33;;
44456;SDS011;30159;49.316;8.558;2024-01-27T08:19:57;5.67;;;2.97;;
44456;SDS011;30159;49.316;8.558;2024-01-27T08:22:24;2.53;;;2.33;;
44456;SDS011;30159;49.316;8.558;2024-01-27T08:24:52;3.17;;;2.87;;
44456;SDS011;30159;49.316;8.558;2024-01-27T08:27:19;2.70;;;2.50;;
44456;SDS011;30159;49.316;8.558;2024-01-27T08:29:45;6.50;;;2.90;;
44456;SDS011;30159;49.316;8.558;2024-01-27T08:32:12;6.13;;;2.90;;
44456;SDS011;30159;49.316;8.558;2024-01-27T08:34:39;3.17;;;2.37;;
44456;SDS011;30159;49.316;8.558;2024-01-27T08:37:14;3.10;;;2.73;;
44456;SDS011;30159;49.316;8.558;2024-01-27T08:39:42;2.73;;;2.53;;
44456;SDS011;30159;49.316;8.558;2024-01-27T08:42:10;3.87;;;2.80;;
44456;SDS011;30159;49.316;8.558;2024-01-27T08:44:37;3.60;;;3.30;;
44456;SDS011;30159;49.316;8.558;2024-01-27T08:47:04;4.10;;;2.87;;
44456;SDS011;30159;49.316;8.558;2024-01-27T08:49:31;6.90;;;3.10;;
44456;SDS011;30159;49.316;8.558;2024-01-27T08:51:58;2.90;;;2.17;;
44456;SDS011;30159;49.316;8.558;2024-01-27T08:54:25;3.60;;;3.40;;
44456;SDS011;30159;49.316;8.558;2024-01-27T08:56:52;2.57;;;2.13;;
44456;SDS011;30159;49.316;8.558;2024-01-27T08:59:20;3.03;;;2.83;;
44456;SDS011;30159;49.316;8.558;2024-01-27T09:01:47;4.00;;;2.20;;
44456;SDS011;30159;49.316;8.558;2024-01-27T09:04:13;3.63;;;2.93;;
44456;SDS011;30159;49.316;8.558;2024-01-27T09:06:40;3.80;;;2.50;;
44456;SDS011;30159;49.316;8.558;2024-01-27T09:09:07;4.37;;;3.73;;
44456;SDS011;30159;49.316;8.558;2024-01-27T09:11:39;7.73;;;3.93;;
44456;SDS011;30159;49.316;8.558;2024-01-27T09:14:06;5.83;;;2.70;;
44456;SDS011;30159;49.316;8.558;2024-01-27T09:16:34;3.07;;;2.43;;
44456;SDS011;30159;49.316;8.558;2024-01-27T09:19:00;2.40;;;2.20;;
44456;SDS011;30159;49.316;8.558;2024-01-27T09:21:27;4.00;;;2.37;;
44456;SDS011;30159;49.316;8.558;2024-01-27T09:23:55;2.83;;;2.63;;
44456;SDS011;30159;49.316;8.558;2024-01-27T09:26:22;3.23;;;2.80;;
44456;SDS011;30159;49.316;8.558;2024-01-27T09:28:49;3.47;;;3.17;;
44456;SDS011;30159;49.316;8.558;2024-01-27T09:31:19;4.60;;;2.97;;
44456;SDS011;30159;49.316;8.558;2024-01-27T09:33:49;3.00;;;2.60;;
44456;SDS011;30159;49.316;8.558;2024-01-27T09:36:17;3.10;;;2.90;;
44456;SDS011;30159;49.316;8.558;2024-01-27T09:38:44;3.97;;;3.23;;
44456;SDS011;30159;49.316;8.558;2024-01-27T09:41:11;3.60;;;2.63;;
44456;SDS011;30159;49.316;8.558;2024-01-27T09:43:39;4.03;;;2.57;;
44456;SDS011;30159;49.316;8.558;2024-01-27T09:46:08;3.23;;;2.93;;
44456;SDS011;30159;49.316;8.558;2024-01-27T09:48:35;6.63;;;3.13;;
44456;SDS011;30159;49.316;8.558;2024-01-27T09:51:03;4.23;;;2.80;;
44456;SDS011;30159;49.316;8.558;2024-01-27T09:53:30;7.57;;;2.73;;
44456;SDS011;30159;49.316;8.558;2024-01-27T09:55:57;3.83;;;2.13;;
44456;SDS011;30159;49.316;8.558;2024-01-27T09:58:27;2.80;;;2.30;;
44456;SDS011;30159;49.316;8.558;2024-01-27T10:00:56;2.50;;;2.30;;
44456;SDS011;30159;49.316;8.558;2024-01-27T10:03:23;3.60;;;2.10;;
44456;SDS011;30159;49.316;8.558;2024-01-27T10:05:51;2.93;;;2.70;;
44456;SDS011;30159;49.316;8.558;2024-01-27T10:08:21;1.93;;;1.70;;
44456;SDS011;30159;49.316;8.558;2024-01-27T10:10:48;2.77;;;2.30;;
44456;SDS011;30159;49.316;8.558;2024-01-27T10:13:18;2.40;;;2.20;;
44456;SDS011;30159;49.316;8.558;2024-01-27T10:15:58;4.73;;;2.10;;
44456;SDS011;30159;49.316;8.558;2024-01-27T10:18:25;2.20;;;1.77;;
44456;SDS011;30159;49.316;8.558;2024-01-27T10:20:52;2.83;;;1.97;;
44456;SDS011;30159;49.316;8.558;2024-01-27T10:23:20;2.27;;;1.67;;
44456;SDS011;30159;49.316;8.558;2024-01-27T10:25:47;2.90;;;1.90;;
44456;SDS011;30159;49.316;8.558;2024-01-27T10:28:15;2.40;;;2.03;;
44456;SDS011;30159;49.316;8.558;2024-01-27T10:30:42;2.10;;;1.90;;
44456;SDS011;30159;49.316;8.558;2024-01-27T10:33:09;3.80;;;2.63;;
44456;SDS011;30159;49.316;8.558;2024-01-27T10:35:35;2.93;;;2.27;;
44456;SDS011;30159;49.316;8.558;2024-01-27T10:38:02;3.80;;;1.80;;
44456;SDS011;30159;49.316;8.558;2024-01-27T10:40:31;6.63;;;2.47;;
44456;SDS011;30159;49.316;8.558;2024-01-27T10:43:00;2.10;;;1.80;;
44456;SDS011;30159;49.316;8.558;2024-01-27T10:45:29;2.43;;;1.80;;
44456;SDS011;30159;49.316;8.558;2024-01-27T10:48:00;2.60;;;1.83;;
44456;SDS011;30159;49.316;8.558;2024-01-27T10:50:28;1.53;;;1.20;;
44456;SDS011;30159;49.316;8.558;2024-01-27T10:52:56;3.20;;;1.90;;
44456;SDS011;30159;49.316;8.558;2024-01-27T10:55:24;4.60;;;1.83;;
44456;SDS011;30159;49.316;8.558;2024-01-27T10:57:53;3.80;;;1.83;;
44456;SDS011;30159;49.316;8.558;2024-01-27T11:00:22;3.27;;;1.60;;
44456;SDS011;30159;49.316;8.558;2024-01-27T11:02:51;2.00;;;1.47;;
44456;SDS011;30159;49.316;8.558;2024-01-27T11:05:20;2.47;;;1.60;;
44456;SDS011;30159;49.316;8.558;2024-01-27T11:07:47;2.50;;;1.60;;
44456;SDS011;30159;49.316;8.558;2024-01-27T11:10:16;1.63;;;1.47;;
44456;SDS011;30159;49.316;8.558;2024-01-27T11:12:43;1.20;;;1.10;;
44456;SDS011;30159;49.316;8.558;2024-01-27T11:15:12;1.50;;;1.40;;
44456;SDS011;30159;49.316;8.558;2024-01-27T11:17:39;5.80;;;1.50;;
44456;SDS011;30159;49.316;8.558;2024-01-27T11:20:07;4.63;;;1.57;;
44456;SDS011;30159;49.316;8.558;2024-01-27T11:22:36;3.70;;;1.43;;
44456;SDS011;30159;49.316;8.558;2024-01-27T11:25:07;2.20;;;1.40;;
44456;SDS011;30159;49.316;8.558;2024-01-27T11:27:39;2.60;;;1.73;;
44456;SDS011;30159;49.316;8.558;2024-01-27T11:30:25;1.43;;;1.30;;
44456;SDS011;30159;49.316;8.558;2024-01-27T11:32:54;6.90;;;1.10;;
44456;SDS011;30159;49.316;8.558;2024-01-27T11:35:21;1.93;;;1.40;;
44456;SDS011;30159;49.316;8.558;2024-01-27T11:37:48;2.70;;;1.10;;
44456;SDS011;30159;49.316;8.558;2024-01-27T11:40:15;1.60;;;1.33;;
44456;SDS011;30159;49.316;8.558;2024-01-27T11:42:42;1.50;;;1.30;;
44456;SDS011;30159;49.316;8.558;2024-01-27T11:45:09;3.63;;;2.17;;
44456;SDS011;30159;49.316;8.558;2024-01-27T11:47:37;1.63;;;1.00;;
44456;SDS011;30159;49.316;8.558;2024-01-27T11:50:04;1.60;;;1.50;;
44456;SDS011;30159;49.316;8.558;2024-01-27T11:52:31;3.30;;;1.50;;
44456;SDS011;30159;49.316;8.558;2024-01-27T11:54:58;2.27;;;1.30;;
44456;SDS011;30159;49.316;8.558;2024-01-27T11:57:25;2.60;;;1.10;;
44456;SDS011;30159;49.316;8.558;2024-01-27T11:59:53;1.80;;;1.47;;
44456;SDS011;30159;49.316;8.558;2024-01-27T12:02:20;1.73;;;1.33;;
44456;SDS011;30159;49.316;8.558;2024-01-27T12:04:48;1.97;;;1.50;;
44456;SDS011;30159;49.316;8.558;2024-01-27T12:07:16;3.70;;;1.67;;
44456;SDS011;30159;49.316;8.558;2024-01-27T12:09:43;1.77;;;1.43;;
44456;SDS011;30159;49.316;8.558;2024-01-27T12:12:10;1.53;;;1.43;;
44456;SDS011;30159;49.316;8.558;2024-01-27T12:14:39;1.90;;;1.67;;
44456;SDS011;30159;49.316;8.558;2024-01-27T12:17:08;3.00;;;1.27;;
44456;SDS011;30159;49.316;8.558;2024-01-27T12:19:36;2.50;;;1.30;;
44456;SDS011;30159;49.316;8.558;2024-01-27T12:22:04;1.67;;;1.47;;
44456;SDS011;30159;49.316;8.558;2024-01-27T12:24:46;1.33;;;1.20;;
44456;SDS011;30159;49.316;8.558;2024-01-27T12:27:13;1.30;;;1.20;;
44456;SDS011;30159;49.316;8.558;2024-01-27T12:29:40;1.10;;;1.00;;
44456;SDS011;30159;49.316;8.558;2024-01-27T12:32:07;1.10;;;1.00;;
44456;SDS011;30159;49.316;8.558;2024-01-27T12:34:35;2.00;;;1.30;;
44456;SDS011;30159;49.316;8.558;2024-01-27T12:37:07;2.60;;;1.40;;
44456;SDS011;30159;49.316;8.558;2024-01-27T12:39:36;1.10;;;1.00;;
44456;SDS011;30159;49.316;8.558;2024-01-27T12:42:03;1.60;;;1.50;;
44456;SDS011;30159;49.316;8.558;2024-01-27T12:44:30;1.40;;;1.30;;
44456;SDS011;30159;49.316;8.558;2024-01-27T12:46:57;6.33;;;1.60;;
44456;SDS011;30159;49.316;8.558;2024-01-27T12:49:24;3.60;;;1.30;;
44456;SDS011;30159;49.316;8.558;2024-01-27T12:51:50;1.00;;;0.80;;
44456;SDS011;30159;49.316;8.558;2024-01-27T12:54:18;1.27;;;1.00;;
44456;SDS011;30159;49.316;8.558;2024-01-27T12:56:45;5.90;;;1.17;;
44456;SDS011;30159;49.316;8.558;2024-01-27T12:59:12;1.43;;;1.10;;
44456;SDS011;30159;49.316;8.558;2024-01-27T13:01:39;2.20;;;1.23;;
44456;SDS011;30159;49.316;8.558;2024-01-27T13:04:05;4.30;;;1.20;;
44456;SDS011;30159;49.316;8.558;2024-01-27T13:06:31;2.53;;;1.20;;
44456;SDS011;30159;49.316;8.558;2024-01-27T13:08:58;1.30;;;0.90;;
44456;SDS011;30159;49.316;8.558;2024-01-27T13:11:26;1.90;;;1.00;;
44456;SDS011;30159;49.316;8.558;2024-01-27T13:13:53;7.00;;;1.20;;
44456;SDS011;30159;49.316;8.558;2024-01-27T13:16:20;4.13;;;0.90;;
44456;SDS011;30159;49.316;8.558;2024-01-27T13:18:46;1.23;;;1.07;;
44456;SDS011;30159;49.316;8.558;2024-01-27T13:21:13;1.03;;;0.93;;
44456;SDS011;30159;49.316;8.558;2024-01-27T13:23:40;2.40;;;1.03;;
44456;SDS011;30159;49.316;8.558;2024-01-27T13:26:06;1.20;;;1.10;;
44456;SDS011;30159;49.316;8.558;2024-01-27T13:28:34;5.23;;;1.13;;
44456;SDS011;30159;49.316;8.558;2024-01-27T13:31:01;1.27;;;1.17;;
44456;SDS011;30159;49.316;8.558;2024-01-27T13:33:28;2.00;;;0.90;;
44456;SDS011;30159;49.316;8.558;2024-01-27T13:35:54;1.13;;;0.97;;
44456;SDS011;30159;49.316;8.558;2024-01-27T13:38:21;2.90;;;0.90;;
44456;SDS011;30159;49.316;8.558;2024-01-27T13:40:48;2.37;;;0.90;;
44456;SDS011;30159;49.316;8.558;2024-01-27T13:43:15;1.30;;;0.90;;
44456;SDS011;30159;49.316;8.558;2024-01-27T13:45:43;5.70;;;1.00;;
44456;SDS011;30159;49.316;8.558;2024-01-27T13:48:12;0.80;;;0.80;;
44456;SDS011;30159;49.316;8.558;2024-01-27T13:50:38;1.10;;;1.00;;
44456;SDS011;30159;49.316;8.558;2024-01-27T13:53:04;1.27;;;1.17;;
44456;SDS011;30159;49.316;8.558;2024-01-27T13:55:31;1.57;;;0.90;;
44456;SDS011;30159;49.316;8.558;2024-01-27T13:57:58;1.40;;;0.80;;
44456;SDS011;30159;49.316;8.558;2024-01-27T14:00:26;3.80;;;0.80;;
44456;SDS011;30159;49.316;8.558;2024-01-27T14:02:54;2.13;;;0.80;;
44456;SDS011;30159;49.316;8.558;2024-01-27T14:05:21;0.90;;;0.70;;
44456;SDS011;30159;49.316;8.558;2024-01-27T14:07:48;3.30;;;1.30;;
44456;SDS011;30159;49.316;8.558;2024-01-27T14:10:14;1.80;;;0.73;;
44456;SDS011;30159;49.316;8.558;2024-01-27T14:12:41;1.07;;;0.97;;
44456;SDS011;30159;49.316;8.558;2024-01-27T14:15:08;0.70;;;0.60;;
44456;SDS011;30159;49.316;8.558;2024-01-27T14:17:35;1.97;;;0.67;;
44456;SDS011;30159;49.316;8.558;2024-01-27T14:20:04;0.93;;;0.73;;
44456;SDS011;30159;49.316;8.558;2024-01-27T14:22:34;0.97;;;0.80;;
44456;SDS011;30159;49.316;8.558;2024-01-27T14:25:01;0.97;;;0.70;;
44456;SDS011;30159;49.316;8.558;2024-01-27T14:27:28;1.13;;;0.53;;
44456;SDS011;30159;49.316;8.558;2024-01-27T14:29:55;0.70;;;0.70;;
44456;SDS011;30159;49.316;8.558;2024-01-27T14:32:22;0.80;;;0.60;;
44456;SDS011;30159;49.316;8.558;2024-01-27T14:34:49;0.87;;;0.63;;
44456;SDS011;30159;49.316;8.558;2024-01-27T14:37:17;0.80;;;0.77;;
44456;SDS011;30159;49.316;8.558;2024-01-27T14:39:44;0.93;;;0.83;;
44456;SDS011;30159;49.316;8.558;2024-01-27T14:42:11;1.53;;;0.80;;
44456;SDS011;30159;49.316;8.558;2024-01-27T14:44:37;1.00;;;0.90;;
44456;SDS011;30159;49.316;8.558;2024-01-27T14:47:05;0.80;;;0.70;;
44456;SDS011;30159;49.316;8.558;2024-01-27T14:49:31;0.90;;;0.90;;